Time;durP1;ratioP1;P1;durP2;ratioP2;P2;SDS_P1;SDS_P2;PMS_P1;PMS_P2;Temp;Humidity;BMP_temperature;BMP_pressure;BME280_temperature;BME280_humidity;BME280_pressure;Samples;Min_cycle;Max_cycle;Signal;HPM_P1;HPM_P2
2021/12/17 00:05:02;;;;;;;3.45;2.03;;;;;;;1.92;100.00;100939.59;5032857;28;20029;-73
2021/12/17 00:07:30;;;;;;;1.73;1.67;;;;;;;1.91;100.00;100946.38;5024971;28;20049;-73
2021/12/17 00:10:01;;;;;;;3.10;2.80;;;;;;;1.95;100.00;100942.31;5029899;28;20052;-73
2021/12/17 00:12:29;;;;;;;1.42;1.40;;;;;;;1.96;100.00;100937.25;5032809;28;20030;-74
2021/12/17 00:14:56;;;;;;;2.33;2.17;;;;;;;1.98;100.00;100938.25;5032814;28;20053;-73
2021/12/17 00:17:27;;;;;;;1.88;1.67;;;;;;;1.96;100.00;100926.16;5032576;28;20441;-73
2021/12/17 00:50:42;;;;;;;2.92;2.40;;;;;;;1.96;100.00;100908.28;5032502;28;20032;-73
2021/12/17 00:52:39;;;;;;;2.00;1.98;;;;;;;2.02;100.00;100899.22;5026434;28;20033;-72
2021/12/17 00:55:08;;;;;;;2.17;2.07;;;;;;;2.08;100.00;100911.47;5032172;28;20467;-72
2021/12/17 00:57:39;;;;;;;3.67;2.92;;;;;;;2.12;100.00;100890.34;5031789;28;20029;-73
2021/12/17 05:20:27;;;;;;;2.55;2.45;;;;;;;3.33;100.00;100817.53;4953969;29;20519;-67
2021/12/17 05:22:57;;;;;;;2.42;2.22;;;;;;;3.30;100.00;100809.75;4954080;29;20035;-67
2021/12/17 05:25:26;;;;;;;2.28;2.17;;;;;;;3.31;100.00;100803.81;4953842;29;20027;-67
2021/12/17 05:27:52;;;;;;;1.65;1.55;;;;;;;3.30;100.00;100812.31;4953690;29;20027;-67
2021/12/17 05:30:17;;;;;;;3.00;2.60;;;;;;;3.26;100.00;100812.09;4992476;23;20162;-73
2021/12/17 05:32:42;;;;;;;1.83;1.70;;;;;;;3.26;100.00;100805.28;4953778;28;20030;-72
2021/12/17 05:35:08;;;;;;;2.55;2.35;;;;;;;3.29;100.00;100805.44;4953885;29;20464;-73
2021/12/17 05:37:33;;;;;;;4.05;2.53;;;;;;;3.34;100.00;100811.63;4961476;28;20023;-72
2021/12/17 05:39:59;;;;;;;2.92;2.83;;;;;;;3.35;100.00;100809.94;4970477;28;20539;-73
2021/12/17 05:42:24;;;;;;;4.22;3.88;;;;;;;3.35;100.00;100805.69;4972988;28;20058;-72
2021/12/17 05:44:55;;;;;;;2.90;2.70;;;;;;;3.44;100.00;100796.66;4973048;28;20487;-73
2021/12/17 05:47:20;;;;;;;4.68;3.75;;;;;;;3.39;100.00;100790.47;4972781;28;20031;-73
2021/12/17 05:49:46;;;;;;;2.17;2.08;;;;;;;3.28;100.00;100795.97;4972926;28;20022;-73
2021/12/17 05:52:11;;;;;;;3.45;2.78;;;;;;;3.32;100.00;100800.41;4972983;28;20022;-73
2021/12/17 05:54:36;;;;;;;3.25;3.00;;;;;;;3.28;100.00;100806.22;4972795;28;20078;-73
2021/12/17 05:57:02;;;;;;;3.40;2.63;;;;;;;3.32;100.00;100805.53;4976134;28;20042;-73
2021/12/17 05:59:33;;;;;;;7.88;2.90;;;;;;;3.22;100.00;100811.06;4976665;28;20065;-72
2021/12/17 06:02:00;;;;;;;2.20;2.10;;;;;;;3.21;100.00;100801.66;4976584;28;20059;-72
2021/12/17 06:04:26;;;;;;;1.85;1.75;;;;;;;3.20;100.00;100799.91;4976749;28;20146;-73
2021/12/17 06:06:51;;;;;;;2.53;2.15;;;;;;;3.18;100.00;100801.50;4972186;28;20110;-72
2021/12/17 06:09:17;;;;;;;3.33;3.03;;;;;;;3.14;100.00;100809.84;4968269;28;20026;-72
2021/12/17 06:11:42;;;;;;;2.88;2.60;;;;;;;3.13;100.00;100817.47;4976432;28;20027;-73
2021/12/17 06:14:08;;;;;;;4.00;3.17;;;;;;;3.15;100.00;100827.00;4976280;28;20404;-73
2021/12/17 06:16:34;;;;;;;2.38;2.03;;;;;;;3.17;100.00;100830.50;4974875;28;20391;-72
2021/12/17 06:19:01;;;;;;;2.35;2.15;;;;;;;3.21;100.00;100827.25;4976249;28;20472;-73
2021/12/17 06:21:26;;;;;;;4.95;3.38;;;;;;;3.28;100.00;100826.72;4976397;28;20027;-72
2021/12/17 06:23:51;;;;;;;3.08;2.17;;;;;;;3.31;100.00;100828.53;4976268;28;20026;-72
2021/12/17 06:26:17;;;;;;;2.83;2.63;;;;;;;3.41;100.00;100824.69;4974757;28;20472;-72
2021/12/17 06:28:42;;;;;;;3.47;2.65;;;;;;;3.32;100.00;100822.59;4976200;28;20118;-73
2021/12/17 06:31:07;;;;;;;4.30;4.00;;;;;;;3.27;100.00;100822.41;4975755;28;20392;-72
2021/12/17 06:33:33;;;;;;;4.47;2.85;;;;;;;3.16;100.00;100823.63;4975994;28;20133;-72
2021/12/17 06:35:58;;;;;;;1.42;1.42;;;;;;;3.15;100.00;100829.56;4972637;28;20027;-72
2021/12/17 06:38:24;;;;;;;4.78;4.13;;;;;;;3.20;100.00;100835.75;4967873;28;20085;-72
2021/12/17 06:40:53;;;;;;;2.45;2.05;;;;;;;3.20;100.00;100845.13;4975778;28;20019;-73
2021/12/17 06:43:18;;;;;;;3.92;3.63;;;;;;;3.14;100.00;100843.16;4975918;28;20491;-72
2021/12/17 06:45:55;;;;;;;3.60;2.88;;;;;;;3.16;100.00;100831.31;4975556;28;20065;-72
2021/12/17 06:48:25;;;;;;;3.42;3.08;;;;;;;3.17;100.00;100825.38;4975850;28;20106;-72
2021/12/17 06:57:09;;;;;;;4.25;2.75;;;;;;;3.08;100.00;100850.56;4975394;28;20439;-73
2021/12/17 07:07:55;;;;;;;4.43;3.28;;;;;;;3.11;100.00;100860.06;4970056;28;20029;-72
2021/12/17 07:18:21;;;;;;;2.85;2.50;;;;;;;3.15;100.00;100867.97;4975274;28;20089;-71
2021/12/17 07:33:58;;;;;;;4.38;3.75;;;;;;;3.22;100.00;100859.75;4974734;28;20027;-72
2021/12/17 07:36:23;;;;;;;5.93;4.30;;;;;;;3.27;100.00;100862.50;4971233;28;20018;-71
2021/12/17 07:38:50;;;;;;;2.40;2.15;;;;;;;3.27;100.00;100860.81;4966672;28;20487;-72
2021/12/17 07:41:17;;;;;;;1.40;1.38;;;;;;;3.22;100.00;100861.44;4974821;28;20026;-71
2021/12/17 07:43:54;;;;;;;5.60;3.28;;;;;;;3.14;100.00;100861.06;4974704;28;20025;-72
2021/12/17 07:46:20;;;;;;;6.43;3.08;;;;;;;3.10;100.00;100859.22;4974459;28;20027;-71
2021/12/17 07:48:46;;;;;;;6.68;2.55;;;;;;;3.06;100.00;100862.44;4943428;28;20047;-71
2021/12/17 07:51:15;;;;;;;3.35;3.05;;;;;;;3.02;100.00;100860.53;4974679;28;20062;-72
2021/12/17 07:53:41;;;;;;;8.13;4.50;;;;;;;3.00;100.00;100862.16;4974434;28;20027;-71
2021/12/17 07:56:10;;;;;;;6.28;3.42;;;;;;;2.99;100.00;100855.25;4974326;28;20449;-71
2021/12/17 07:58:35;;;;;;;3.63;2.58;;;;;;;2.96;100.00;100860.25;4974316;28;20074;-72
2021/12/17 08:01:01;;;;;;;3.53;3.20;;;;;;;2.91;100.00;100867.72;4974505;28;20297;-72
2021/12/17 08:03:26;;;;;;;4.88;3.40;;;;;;;2.95;100.00;100861.03;4925621;28;20062;-71
2021/12/17 08:05:53;;;;;;;2.25;2.00;;;;;;;3.08;100.00;100856.56;4971485;28;20074;-72
2021/12/17 08:08:19;;;;;;;4.22;2.83;;;;;;;3.19;100.00;100862.19;4918087;28;20046;-71
2021/12/17 08:10:47;;;;;;;4.20;2.90;;;;;;;3.26;100.00;100866.75;4974195;28;20026;-72
2021/12/17 08:13:19;;;;;;;3.72;2.92;;;;;;;3.49;100.00;100864.38;4974029;28;20034;-72
2021/12/17 08:16:01;;;;;;;5.65;3.92;;;;;;;3.57;100.00;100863.00;4925336;28;20507;-72
2021/12/17 08:26:10;;;;;;;4.30;3.13;;;;;;;3.78;100.00;100863.94;4824209;28;20077;-72
2021/12/17 08:28:53;;;;;;;3.55;2.00;;;;;;;3.89;100.00;100866.06;4876198;28;20054;-72
2021/12/17 08:31:19;;;;;;;6.53;3.38;;;;;;;3.99;100.00;100868.22;4824283;28;20396;-71
2021/12/17 08:33:44;;;;;;;5.18;1.90;;;;;;;4.16;98.46;100867.25;4876249;28;20043;-72
2021/12/17 08:36:10;;;;;;;4.20;3.20;;;;;;;4.16;98.20;100864.69;4823668;28;20051;-72
2021/12/17 08:38:36;;;;;;;2.88;2.67;;;;;;;4.39;98.04;100866.47;4852495;28;20035;-72
2021/12/17 08:41:02;;;;;;;3.63;2.90;;;;;;;4.35;97.15;100874.88;4792497;28;20046;-72
2021/12/17 08:43:27;;;;;;;5.60;3.92;;;;;;;4.48;97.24;100870.22;4839845;28;20039;-72
2021/12/17 08:45:53;;;;;;;2.92;2.47;;;;;;;4.65;96.26;100871.78;4812365;28;20098;-71
2021/12/17 08:48:19;;;;;;;6.93;3.83;;;;;;;4.64;95.44;100864.88;4826985;28;20054;-72
2021/12/17 08:50:44;;;;;;;3.75;3.45;;;;;;;4.90;94.54;100865.91;4840019;28;20031;-72
2021/12/17 08:53:09;;;;;;;2.03;1.92;;;;;;;4.97;93.67;100867.00;4793643;28;20044;-72
2021/12/17 08:55:35;;;;;;;2.65;2.45;;;;;;;5.32;92.90;100864.09;4837011;28;20118;-72
2021/12/17 08:58:01;;;;;;;4.20;3.25;;;;;;;6.68;87.43;100858.47;4788305;28;20039;-72
2021/12/17 09:00:27;;;;;;;7.90;4.03;;;;;;;7.79;79.35;100854.78;4839160;28;20031;-72
2021/12/17 09:02:58;;;;;;;2.55;2.40;;;;;;;10.04;70.98;100850.31;4815812;28;20040;-72
2021/12/17 09:05:23;;;;;;;2.53;2.33;;;;;;;12.16;61.63;100845.41;4861659;28;20134;-72
2021/12/17 09:07:48;;;;;;;4.25;2.75;;;;;;;13.07;56.51;100843.44;4960763;28;20166;-73
2021/12/17 09:10:20;;;;;;;5.63;2.60;;;;;;;14.61;52.99;100839.47;4923429;28;20042;-73
2021/12/17 09:12:45;;;;;;;6.35;3.03;;;;;;;16.93;47.22;100842.50;4973123;28;20396;-73
2021/12/17 09:15:10;;;;;;;4.20;2.75;;;;;;;18.15;42.09;100846.16;4973294;28;20023;-73
2021/12/17 09:17:36;;;;;;;3.78;2.90;;;;;;;17.63;42.68;100851.25;4973005;28;20026;-72
2021/12/17 09:20:02;;;;;;;3.90;2.70;;;;;;;18.19;40.87;100846.97;4973130;28;20026;-73
2021/12/17 09:22:27;;;;;;;2.58;2.38;;;;;;;19.46;39.38;100852.53;4973115;28;20365;-73
2021/12/17 09:24:52;;;;;;;3.05;2.50;;;;;;;20.43;37.57;100843.28;4875785;28;20042;-73
2021/12/17 09:27:18;;;;;;;1.58;1.48;;;;;;;21.07;35.18;100841.59;4868657;28;20028;-72
2021/12/17 09:29:44;;;;;;;2.30;2.10;;;;;;;22.20;33.02;100843.50;4924903;28;20145;-73
2021/12/17 09:32:10;;;;;;;2.63;2.42;;;;;;;19.56;37.02;100848.78;4977112;28;20031;-73
2021/12/17 09:34:36;;;;;;;3.33;2.50;;;;;;;19.45;36.65;100853.44;4976942;28;20098;-73
2021/12/17 09:37:01;;;;;;;2.55;2.03;;;;;;;18.42;38.03;100862.31;4972553;28;20102;-73
2021/12/17 09:39:27;;;;;;;1.90;1.20;;;;;;;17.84;38.51;100865.84;4969536;28;20137;-73
2021/12/17 09:41:53;;;;;;;1.80;1.70;;;;;;;19.48;35.94;100855.97;4976841;28;20026;-73
2021/12/17 09:44:19;;;;;;;3.10;1.83;;;;;;;20.17;34.04;100852.69;4843623;28;20085;-72
2021/12/17 09:46:46;;;;;;;1.73;1.33;;;;;;;21.16;31.75;100851.88;4866214;28;20035;-73
2021/12/17 09:49:12;;;;;;;1.42;1.33;;;;;;;20.00;34.90;100860.13;4976582;28;20403;-73
2021/12/17 09:51:37;;;;;;;2.00;1.50;;;;;;;20.04;34.71;100856.50;4976689;28;20031;-73
2021/12/17 09:54:03;;;;;;;1.40;1.20;;;;;;;19.16;35.42;100860.13;4976598;28;20039;-73
2021/12/17 09:56:28;;;;;;;2.45;1.90;;;;;;;17.63;36.29;100864.34;4976459;28;20511;-73
2021/12/17 09:58:55;;;;;;;1.58;1.48;;;;;;;20.69;33.50;100848.75;4976697;28;20443;-73
2021/12/17 10:01:20;;;;;;;1.27;1.17;;;;;;;21.45;32.50;100850.22;4976506;28;20086;-73
2021/12/17 10:03:46;;;;;;;1.65;1.50;;;;;;;21.92;31.93;100853.19;4976358;28;20027;-73
2021/12/17 10:06:22;;;;;;;1.35;1.25;;;;;;;22.78;30.18;100846.81;4972688;28;20031;-73
2021/12/17 10:08:48;;;;;;;1.90;1.30;;;;;;;23.81;28.32;100841.25;4968232;28;20054;-73
2021/12/17 10:11:15;;;;;;;1.38;1.10;;;;;;;22.45;29.72;100842.69;4976438;28;20050;-73
2021/12/17 10:13:40;;;;;;;1.33;1.15;;;;;;;21.88;30.65;100841.00;4976231;28;20082;-73
2021/12/17 10:16:09;;;;;;;3.70;2.63;;;;;;;21.07;32.48;100843.38;4976696;28;20408;-73
2021/12/17 10:18:38;;;;;;;3.60;2.13;;;;;;;20.84;31.82;100843.97;4976152;28;20026;-73
2021/12/17 10:21:05;;;;;;;;;;;;;;;22.08;30.26;100839.44;4976629;28;20031;-70
2021/12/17 10:23:32;;;;;;;1.75;1.65;;;;;;;22.53;29.58;100836.22;4976230;28;20363;-70
2021/12/17 10:25:58;;;;;;;3.28;2.35;;;;;;;20.58;32.23;100837.66;4975880;28;20050;-69
2021/12/17 10:28:24;;;;;;;2.10;1.48;;;;;;;20.54;33.17;100836.00;4976139;28;20480;-70
2021/12/17 10:30:52;;;;;;;1.98;1.77;;;;;;;20.70;31.92;100845.25;4975683;28;20049;-70
2021/12/17 10:33:20;;;;;;;1.58;1.48;;;;;;;21.58;30.91;100854.22;4975983;28;20388;-70
2021/12/17 10:35:49;;;;;;;1.83;1.73;;;;;;;20.91;31.04;100848.19;4974030;28;20030;-69
2021/12/17 10:38:17;;;;;;;0.98;0.88;;;;;;;20.18;33.03;100843.91;4966699;28;20263;-69
2021/12/17 10:43:47;;;;;;;2.25;1.05;;;;;;;20.05;33.42;100842.44;4975190;28;20105;-72
2021/12/17 10:46:31;;;;;;;1.90;1.38;;;;;;;20.36;32.99;100845.22;4975430;28;20413;-73
2021/12/17 10:54:11;;;;;;;1.90;1.10;;;;;;;12.55;47.57;100873.47;4975608;28;20029;-72
2021/12/17 10:56:39;;;;;;;1.33;1.23;;;;;;;9.30;57.35;100870.47;4975113;28;20037;-72
2021/12/17 10:59:19;;;;;;;1.45;1.10;;;;;;;9.56;58.17;100859.78;4975359;28;20022;-69
2021/12/17 11:01:54;;;;;;;5.00;1.52;;;;;;;8.23;63.33;100870.56;4975086;28;20050;-72
2021/12/17 11:04:27;;;;;;;1.60;1.20;;;;;;;8.21;64.75;100861.88;4975227;28;20519;-72
2021/12/17 11:07:05;;;;;;;1.13;1.05;;;;;;;8.02;65.04;100851.91;4971288;28;20503;-72
2021/12/17 11:09:55;;;;;;;1.25;1.00;;;;;;;8.30;64.16;100856.94;4961241;28;20030;-72
2021/12/17 11:12:24;;;;;;;0.90;0.90;;;;;;;9.02;63.66;100846.59;4960144;28;20086;-71
2021/12/17 11:14:50;;;;;;;2.53;1.55;;;;;;;10.53;58.10;100835.63;4955464;28;20035;-71
2021/12/17 11:17:20;;;;;;;1.15;0.98;;;;;;;9.49;60.12;100838.94;4955511;29;20082;-71
2021/12/17 11:19:47;;;;;;;1.73;1.45;;;;;;;10.68;57.81;100828.91;4955615;28;20070;-71
2021/12/17 11:22:12;;;;;;;1.08;1.00;;;;;;;11.93;53.28;100825.28;4955538;29;20111;-69
2021/12/17 11:24:38;;;;;;;0.73;0.73;;;;;;;12.22;52.55;100822.94;4954790;28;20102;-72
2021/12/17 11:27:05;;;;;;;9.07;1.73;;;;;;;14.55;46.58;100816.88;4962989;28;20029;-69
2021/12/17 11:29:31;;;;;;;4.78;1.65;;;;;;;15.38;44.13;100814.88;4955398;28;20114;-69
2021/12/17 11:31:59;;;;;;;1.20;0.77;;;;;;;12.40;51.45;100824.81;4962599;23;20122;-72
2021/12/17 11:34:25;;;;;;;0.80;0.80;;;;;;;14.77;45.31;100822.91;4955521;28;20542;-69
2021/12/17 11:36:51;;;;;;;0.85;0.73;;;;;;;16.22;42.27;100815.22;4955189;28;20023;-73
2021/12/17 11:39:23;;;;;;;1.15;0.90;;;;;;;13.93;46.04;100829.88;4947427;29;20023;-69
2021/12/17 11:41:57;;;;;;;5.60;1.38;;;;;;;17.02;41.17;100816.22;4955310;29;20072;-69
2021/12/17 11:44:31;;;;;;;1.60;1.30;;;;;;;15.90;43.44;100808.47;4955704;28;20380;-72
2021/12/17 11:47:05;;;;;;;1.80;1.65;;;;;;;16.77;40.62;100814.72;4955265;28;20027;-70
2021/12/17 11:49:44;;;;;;;1.13;1.02;;;;;;;14.59;44.63;100818.59;4955302;28;20034;-69
2021/12/17 11:52:10;;;;;;;1.20;1.10;;;;;;;15.56;43.16;100808.66;4954958;28;20031;-72
2021/12/17 11:54:37;;;;;;;0.93;0.90;;;;;;;16.16;42.41;100801.31;4954179;28;20106;-70
2021/12/17 11:57:12;;;;;;;1.27;1.17;;;;;;;15.76;42.95;100808.59;4946892;28;20157;-73
2021/12/17 11:59:44;;;;;;;1.02;0.93;;;;;;;12.48;50.70;100812.75;4954941;28;20105;-73
2021/12/17 12:02:17;;;;;;;0.82;0.80;;;;;;;14.50;47.13;100808.16;4954999;28;20074;-72
2021/12/17 12:05:03;;;;;;;1.05;1.05;;;;;;;14.56;46.73;100800.34;4954823;28;20029;-72
2021/12/17 12:07:28;;;;;;;0.90;0.90;;;;;;;15.42;45.32;100800.03;4946791;28;20046;-70
2021/12/17 12:09:57;;;;;;;1.23;1.13;;;;;;;17.79;40.05;100799.47;4939311;28;20028;-72
2021/12/17 12:12:25;;;;;;;1.88;0.90;;;;;;;17.90;39.65;100798.44;4935760;29;20267;-70
2021/12/17 12:14:50;;;;;;;1.58;1.15;;;;;;;17.48;40.15;100799.91;4935445;29;20028;-69
2021/12/17 12:17:53;;;;;;;1.30;1.00;;;;;;;16.34;42.39;100804.66;4935361;29;20027;-69
2021/12/17 12:20:44;;;;;;;1.90;1.08;;;;;;;13.26;49.73;100814.94;4935623;29;20055;-72
2021/12/17 12:23:19;;;;;;;1.23;1.00;;;;;;;12.39;51.63;100810.09;4933386;29;20035;-69
2021/12/17 12:25:47;;;;;;;1.13;1.02;;;;;;;13.23;51.35;100796.69;4941410;29;20102;-72
2021/12/17 12:28:16;;;;;;;1.00;0.90;;;;;;;12.46;52.72;100793.66;4944617;28;20167;-71
2021/12/17 12:30:44;;;;;;;0.93;0.93;;;;;;;11.62;56.61;100781.66;4935343;29;20106;-73
2021/12/17 12:33:12;;;;;;;1.70;1.60;;;;;;;11.50;56.47;100785.84;4935124;29;20437;-69
2021/12/17 12:35:38;;;;;;;0.88;0.88;;;;;;;10.53;58.74;100783.78;4936107;29;20481;-72
2021/12/17 12:38:22;;;;;;;2.45;0.75;;;;;;;10.03;60.93;100786.44;4945255;28;20034;-72
2021/12/17 12:40:52;;;;;;;1.33;0.95;;;;;;;10.30;61.88;100774.81;4935361;29;20547;-72
2021/12/17 12:43:25;;;;;;;;;;;;;;;8.96;66.19;100786.16;4934204;29;20031;-70
2021/12/17 12:45:51;;;;;;;2.83;1.67;;;;;;;8.57;67.62;100783.56;4934930;29;19910;-68
2021/12/17 12:48:32;;;;;;;1.45;1.10;;;;;;;9.66;64.14;100773.69;4935068;29;20397;-69
2021/12/17 12:51:19;;;;;;;0.80;0.80;;;;;;;9.24;64.87;100779.81;4935170;29;20038;-71
2021/12/17 12:54:02;;;;;;;0.88;0.88;;;;;;;8.97;65.78;100775.81;4934920;29;20474;-69
2021/12/17 12:56:28;;;;;;;1.08;1.08;;;;;;;8.60;68.23;100773.28;4946587;29;20083;-68
2021/12/17 12:58:53;;;;;;;1.38;1.30;;;;;;;8.58;68.74;100772.41;4938632;28;20033;-72
2021/12/17 13:01:20;;;;;;;3.63;1.33;;;;;;;9.30;66.52;100774.75;4934811;29;20110;-68
2021/12/17 13:03:46;;;;;;;1.10;1.00;;;;;;;8.65;67.92;100784.59;4934637;29;20027;-69
2021/12/17 13:06:19;;;;;;;1.55;0.93;;;;;;;8.97;66.86;100796.50;4938048;29;20038;-70
2021/12/17 13:08:56;;;;;;;0.90;0.90;;;;;;;8.82;66.55;100798.78;4942623;29;20070;-71
2021/12/17 13:11:22;;;;;;;1.27;1.05;;;;;;;8.31;68.88;100791.53;4934633;29;20034;-72
2021/12/17 13:13:58;;;;;;;1.80;1.42;;;;;;;8.16;69.41;100806.66;4935033;28;20082;-69
2021/12/17 13:24:25;;;;;;;1.30;1.23;;;;;;;8.39;69.25;100779.72;4934944;29;20035;-72
2021/12/17 13:26:57;;;;;;;1.60;1.13;;;;;;;8.58;70.05;100767.22;4949252;29;20027;-72
2021/12/17 13:29:29;;;;;;;1.33;1.23;;;;;;;8.65;68.32;100761.34;4953724;28;20117;-68
2021/12/17 13:32:09;;;;;;;1.52;1.45;;;;;;;8.63;68.45;100765.63;4953350;28;20162;-69
2021/12/17 13:34:36;;;;;;;1.30;1.20;;;;;;;8.50;69.17;100772.22;4953861;28;20031;-69
2021/12/17 13:37:22;;;;;;;1.13;1.13;;;;;;;8.71;68.58;100756.31;4945140;28;20023;-68
2021/12/17 13:39:51;;;;;;;1.15;1.15;;;;;;;8.75;68.53;100758.09;4939423;28;20094;-69
2021/12/17 13:42:19;;;;;;;1.95;1.10;;;;;;;8.70;68.53;100768.38;4934294;29;20086;-69
2021/12/17 13:44:52;;;;;;;1.58;1.48;;;;;;;8.26;69.95;100775.06;4934348;29;20036;-69
2021/12/17 13:47:30;;;;;;;1.02;1.02;;;;;;;8.46;69.10;100781.63;4934191;29;20548;-69
2021/12/17 13:50:00;;;;;;;2.28;1.30;;;;;;;8.26;70.19;100767.31;4934397;29;20035;-69
2021/12/17 13:52:29;;;;;;;1.67;1.50;;;;;;;8.27;70.49;100763.94;4934088;29;20400;-69
2021/12/17 13:54:56;;;;;;;2.42;1.60;;;;;;;8.35;70.93;100764.09;4934216;29;20034;-72
2021/12/17 13:57:24;;;;;;;1.17;1.13;;;;;;;7.80;72.78;100767.94;4949813;29;20026;-72
2021/12/17 13:59:49;;;;;;;0.75;0.75;;;;;;;8.04;71.53;100770.25;4934290;29;20028;-69
2021/12/17 14:02:16;;;;;;;1.52;1.42;;;;;;;8.08;71.74;100777.22;4934330;29;20109;-69
2021/12/17 14:04:43;;;;;;;1.92;1.48;;;;;;;7.92;71.77;100786.28;4934237;29;20090;-72
2021/12/17 14:07:11;;;;;;;3.30;2.33;;;;;;;7.81;72.81;100791.19;4938788;29;20028;-72
2021/12/17 14:09:37;;;;;;;1.15;1.05;;;;;;;7.80;72.57;100781.69;4940138;28;20028;-71
2021/12/17 14:12:36;;;;;;;2.35;1.30;;;;;;;7.72;72.89;100788.34;4934216;29;20104;-71
2021/12/17 14:15:06;;;;;;;2.13;1.92;;;;;;;7.45;73.77;100789.38;4926708;29;20048;-69
2021/12/17 14:17:42;;;;;;;1.02;1.00;;;;;;;7.37;74.16;100790.88;4936519;29;20088;-71
2021/12/17 14:20:14;;;;;;;1.00;1.00;;;;;;;7.34;74.78;100795.94;4937652;29;20054;-71
2021/12/17 14:22:44;;;;;;;1.38;1.27;;;;;;;7.21;75.05;100809.34;4938053;29;20041;-69
2021/12/17 14:25:47;;;;;;;1.23;1.23;;;;;;;7.11;76.45;100812.50;4939131;29;20026;-71
2021/12/17 14:28:16;;;;;;;1.27;1.17;;;;;;;6.94;77.66;100830.91;4946657;28;20050;-68
2021/12/17 14:30:52;;;;;;;4.20;1.63;;;;;;;6.93;77.75;100824.00;4937534;29;20047;-71
2021/12/17 14:33:20;;;;;;;2.90;1.98;;;;;;;6.26;80.14;100810.75;4937253;29;20031;-71
2021/12/17 14:35:56;;;;;;;1.25;1.25;;;;;;;6.29;81.84;100822.03;4939102;29;20112;-68
2021/12/17 14:38:33;;;;;;;2.58;1.77;;;;;;;6.44;80.53;100817.34;4945270;29;20027;-68
2021/12/17 14:41:01;;;;;;;2.67;1.70;;;;;;;6.41;80.77;100826.69;4937228;29;20055;-68
2021/12/17 14:43:31;;;;;;;2.10;2.00;;;;;;;6.19;81.69;100830.28;4937138;29;20028;-71
2021/12/17 14:46:10;;;;;;;1.52;1.45;;;;;;;6.22;81.55;100835.50;4937166;28;20512;-69
2021/12/17 14:48:53;;;;;;;1.97;1.73;;;;;;;6.13;81.89;100835.19;4937325;28;20039;-71
2021/12/17 15:04:42;;;;;;;1.63;1.48;;;;;;;5.62;84.07;100840.28;4937074;29;20023;-71
2021/12/17 15:07:08;;;;;;;1.52;1.42;;;;;;;5.57;84.10;100841.84;4941331;29;20059;-71
2021/12/17 15:09:35;;;;;;;1.77;1.67;;;;;;;5.57;84.76;100840.13;4943370;28;20037;-68
2021/12/17 15:12:11;;;;;;;1.70;1.60;;;;;;;5.43;85.42;100848.19;4936605;29;20401;-68
2021/12/17 15:14:36;;;;;;;2.78;2.38;;;;;;;5.38;85.15;100850.56;4936881;29;20107;-71
2021/12/17 15:17:02;;;;;;;2.72;1.45;;;;;;;5.43;85.03;100843.03;4936511;29;20111;-68
2021/12/17 15:19:27;;;;;;;2.78;2.58;;;;;;;5.43;85.06;100840.47;4936672;29;20107;-69
2021/12/17 15:21:52;;;;;;;3.00;2.63;;;;;;;5.44;84.66;100839.63;4936615;29;20087;-71
2021/12/17 15:24:18;;;;;;;2.05;1.77;;;;;;;5.34;84.78;100841.88;4936481;29;20469;-71
2021/12/17 15:26:44;;;;;;;2.03;1.85;;;;;;;5.24;85.22;100842.38;4950078;28;20027;-69
2021/12/17 15:29:09;;;;;;;1.80;1.70;;;;;;;5.17;85.61;100842.94;4937948;28;20027;-71
2021/12/17 15:31:34;;;;;;;3.25;2.30;;;;;;;5.10;86.03;100846.97;4936353;29;20032;-69
2021/12/17 15:34:00;;;;;;;4.97;1.63;;;;;;;5.15;85.84;100839.44;4936248;29;20036;-71
2021/12/17 15:36:25;;;;;;;1.85;1.63;;;;;;;5.09;86.19;100850.38;4939678;29;20070;-69
2021/12/17 15:38:50;;;;;;;2.10;1.90;;;;;;;5.06;86.08;100846.81;4944105;29;20089;-71
2021/12/17 15:41:16;;;;;;;1.73;1.70;;;;;;;5.01;85.75;100844.06;4936174;29;20062;-68
2021/12/17 15:43:41;;;;;;;1.98;1.65;;;;;;;4.96;86.09;100847.28;4936314;29;20027;-68
2021/12/17 15:46:06;;;;;;;1.98;1.83;;;;;;;4.93;86.43;100844.59;4936038;29;20023;-69
2021/12/17 15:48:32;;;;;;;2.13;2.03;;;;;;;4.98;86.15;100843.06;4935190;29;20651;-69
2021/12/17 15:50:57;;;;;;;1.00;1.00;;;;;;;4.93;86.80;100844.59;4935167;29;20147;-71
2021/12/17 15:53:22;;;;;;;3.25;2.47;;;;;;;4.92;86.76;100847.97;4935988;29;20047;-68
2021/12/17 15:55:48;;;;;;;3.20;2.90;;;;;;;4.84;86.90;100853.72;4942260;29;20023;-70
2021/12/17 15:58:13;;;;;;;3.50;2.38;;;;;;;4.84;86.91;100846.00;4945102;28;20028;-68
2021/12/17 16:00:39;;;;;;;1.60;1.50;;;;;;;4.90;86.72;100843.66;4936055;29;20412;-69
2021/12/17 16:03:07;;;;;;;4.93;2.85;;;;;;;4.95;86.12;100848.09;4935729;29;20082;-68
2021/12/17 16:05:34;;;;;;;2.70;2.53;;;;;;;4.97;86.40;100851.59;4936216;29;20393;-71
2021/12/17 16:08:00;;;;;;;2.60;1.95;;;;;;;5.01;86.27;100851.78;4946454;28;20031;-71
2021/12/17 16:18:41;;;;;;;1.92;1.83;;;;;;;5.02;86.46;100847.50;4935649;29;20531;-69
2021/12/17 16:21:07;;;;;;;2.38;1.48;;;;;;;4.98;86.29;100843.97;4935734;29;20096;-71
2021/12/17 16:23:36;;;;;;;1.45;1.35;;;;;;;5.00;86.14;100841.44;4935753;29;20019;-68
2021/12/17 16:26:04;;;;;;;1.45;1.45;;;;;;;5.03;86.12;100841.53;4943739;29;20063;-71
2021/12/17 16:28:30;;;;;;;1.73;1.63;;;;;;;5.01;86.17;100835.50;4942441;28;20051;-69
2021/12/17 16:31:08;;;;;;;2.47;1.63;;;;;;;4.98;86.04;100832.78;4935459;28;20497;-71
2021/12/17 16:33:36;;;;;;;5.75;3.00;;;;;;;4.99;86.10;100832.00;4935535;29;20067;-69
2021/12/17 16:36:02;;;;;;;3.95;2.85;;;;;;;5.06;86.50;100821.13;4938659;29;20102;-69
2021/12/17 16:38:29;;;;;;;3.13;2.70;;;;;;;5.02;86.13;100832.09;4942894;29;20050;-71
2021/12/17 16:40:54;;;;;;;5.10;2.22;;;;;;;5.10;86.27;100828.13;4935079;29;20035;-71
2021/12/17 16:43:20;;;;;;;4.82;3.85;;;;;;;5.15;85.39;100834.31;4935176;29;20384;-71
2021/12/17 16:46:03;;;;;;;4.57;2.78;;;;;;;5.11;85.47;100835.00;4935122;29;20122;-71
2021/12/17 16:48:28;;;;;;;1.50;1.45;;;;;;;5.06;85.31;100839.97;4935108;29;20031;-71
2021/12/17 16:50:53;;;;;;;1.92;1.83;;;;;;;4.88;85.97;100840.19;4935209;29;20023;-71
2021/12/17 16:53:19;;;;;;;1.60;1.50;;;;;;;4.78;87.15;100840.63;4935090;29;20429;-71
2021/12/17 16:55:44;;;;;;;3.58;3.28;;;;;;;4.70;87.43;100842.03;4940995;29;20832;-72
2021/12/17 16:58:10;;;;;;;2.92;2.72;;;;;;;4.61;87.48;100846.81;4944637;28;20541;-70
2021/12/17 17:00:35;;;;;;;3.05;2.75;;;;;;;4.50;87.95;100853.22;4934946;29;20114;-70
2021/12/17 17:03:01;;;;;;;6.15;1.50;;;;;;;4.47;89.08;100859.09;4934981;29;20020;-71
2021/12/17 17:05:27;;;;;;;3.95;2.92;;;;;;;4.49;88.88;100856.56;4934954;29;20485;-72
2021/12/17 17:07:52;;;;;;;2.22;2.13;;;;;;;4.36;88.59;100857.78;4945584;29;20030;-70
2021/12/17 17:10:19;;;;;;;2.47;2.25;;;;;;;4.32;89.02;100849.09;4935523;28;20043;-73
2021/12/17 17:12:48;;;;;;;3.05;2.78;;;;;;;4.22;89.70;100846.97;4934881;29;20481;-72
2021/12/17 17:15:14;;;;;;;5.75;4.50;;;;;;;4.22;89.84;100844.41;4934746;29;20492;-69
2021/12/17 17:17:39;;;;;;;6.20;3.72;;;;;;;4.16;91.00;100856.97;4934954;29;20044;-69
2021/12/17 17:20:06;;;;;;;6.00;4.40;;;;;;;4.10;90.62;100851.56;4934889;29;20669;-69
2021/12/17 17:22:31;;;;;;;3.85;3.20;;;;;;;4.18;90.87;100847.66;4934741;29;20373;-71
2021/12/17 17:24:56;;;;;;;3.00;2.80;;;;;;;4.12;90.46;100860.22;4934711;29;20048;-69
2021/12/17 17:27:21;;;;;;;4.35;3.92;;;;;;;4.11;91.03;100863.63;4950213;29;20102;-72
2021/12/17 17:29:48;;;;;;;4.38;2.83;;;;;;;4.17;90.82;100881.81;4934828;29;20023;-72
2021/12/17 17:32:14;;;;;;;6.40;3.22;;;;;;;4.15;90.40;100880.84;4992110;23;20109;-69
2021/12/17 17:34:39;;;;;;;2.42;2.30;;;;;;;4.21;90.59;100870.88;4953883;28;20032;-69
2021/12/17 17:37:05;;;;;;;3.15;2.85;;;;;;;4.19;90.80;100869.91;4952767;28;20490;-69
2021/12/17 17:39:30;;;;;;;2.50;2.30;;;;;;;4.21;89.46;100864.88;4946769;29;20380;-69
2021/12/17 17:41:55;;;;;;;7.18;3.70;;;;;;;4.19;89.28;100857.09;4953646;29;20027;-69
2021/12/17 17:44:20;;;;;;;4.45;3.42;;;;;;;4.23;89.65;100863.22;4953811;28;20027;-69
2021/12/17 17:46:47;;;;;;;2.55;2.35;;;;;;;4.30;89.81;100861.00;4953614;28;20038;-69
2021/12/17 17:49:12;;;;;;;3.38;2.05;;;;;;;4.32;89.63;100864.47;4953881;28;20034;-69
2021/12/17 17:51:39;;;;;;;1.83;1.73;;;;;;;4.43;89.43;100866.59;4956402;28;20411;-69